sensor_id;sensor_type;location;lat;lon;timestamp;pressure;altitude;pressure_sealevel;temperature;humidity
18749;BME280;9503;53.560;10.246;2023-11-21T00:01:15;100316.66;;;12.13;92.04
18749;BME280;9503;53.560;10.246;2023-11-21T00:03:42;100321.34;;;12.01;94.60
18749;BME280;9503;53.560;10.246;2023-11-21T00:06:10;100324.00;;;12.27;92.95
18749;BME280;9503;53.560;10.246;2023-11-21T00:08:37;100319.22;;;12.13;91.99
18749;BME280;9503;53.560;10.246;2023-11-21T00:11:04;100326.22;;;12.17;92.57
18749;BME280;9503;53.560;10.246;2023-11-21T00:13:31;100330.00;;;12.27;92.59
18749;BME280;9503;53.560;10.246;2023-11-21T00:15:58;100325.91;;;11.84;93.42
18749;BME280;9503;53.560;10.246;2023-11-21T00:18:25;100339.56;;;11.83;92.66
18749;BME280;9503;53.560;10.246;2023-11-21T00:20:51;100340.47;;;12.33;92.01
18749;BME280;9503;53.560;10.246;2023-11-21T00:23:19;100341.19;;;12.29;91.70
18749;BME280;9503;53.560;10.246;2023-11-21T00:25:46;100343.16;;;12.36;90.56
18749;BME280;9503;53.560;10.246;2023-11-21T00:28:13;100341.53;;;12.14;91.54
18749;BME280;9503;53.560;10.246;2023-11-21T00:30:39;100343.38;;;12.18;90.87
18749;BME280;9503;53.560;10.246;2023-11-21T00:33:06;100349.63;;;12.01;91.37
18749;BME280;9503;53.560;10.246;2023-11-21T00:35:33;100348.66;;;11.98;90.66
18749;BME280;9503;53.560;10.246;2023-11-21T00:38:00;100349.16;;;11.89;91.19
18749;BME280;9503;53.560;10.246;2023-11-21T00:40:28;100349.72;;;11.80;91.45
18749;BME280;9503;53.560;10.246;2023-11-21T00:42:54;100364.16;;;11.78;91.37
18749;BME280;9503;53.560;10.246;2023-11-21T00:45:22;100359.81;;;12.22;90.30
18749;BME280;9503;53.560;10.246;2023-11-21T00:47:48;100367.59;;;11.79;91.37
18749;BME280;9503;53.560;10.246;2023-11-21T00:50:15;100373.28;;;11.93;90.17
18749;BME280;9503;53.560;10.246;2023-11-21T00:52:41;100367.50;;;11.53;92.56
18749;BME280;9503;53.560;10.246;2023-11-21T00:55:08;100375.41;;;11.59;92.41
18749;BME280;9503;53.560;10.246;2023-11-21T00:57:38;100383.94;;;11.58;92.27
18749;BME280;9503;53.560;10.246;2023-11-21T01:00:06;100388.97;;;11.33;92.16
18749;BME280;9503;53.560;10.246;2023-11-21T01:02:34;100393.22;;;11.32;91.82
18749;BME280;9503;53.560;10.246;2023-11-21T01:05:02;100399.53;;;11.20;92.91
18749;BME280;9503;53.560;10.246;2023-11-21T01:07:29;100407.69;;;11.53;92.68
18749;BME280;9503;53.560;10.246;2023-11-21T01:09:55;100414.16;;;11.43;92.05
18749;BME280;9503;53.560;10.246;2023-11-21T01:12:22;100415.53;;;11.56;91.06
18749;BME280;9503;53.560;10.246;2023-11-21T01:14:51;100419.59;;;11.73;90.35
18749;BME280;9503;53.560;10.246;2023-11-21T01:17:18;100414.94;;;11.20;90.05
18749;BME280;9503;53.560;10.246;2023-11-21T01:19:45;100429.47;;;11.19;92.65
18749;BME280;9503;53.560;10.246;2023-11-21T01:22:11;100436.84;;;11.12;91.57
18749;BME280;9503;53.560;10.246;2023-11-21T01:24:38;100435.88;;;11.30;90.25
18749;BME280;9503;53.560;10.246;2023-11-21T01:27:05;100446.91;;;11.28;88.43
18749;BME280;9503;53.560;10.246;2023-11-21T01:29:32;100441.72;;;11.47;89.91
18749;BME280;9503;53.560;10.246;2023-11-21T01:32:02;100442.81;;;11.11;90.10
18749;BME280;9503;53.560;10.246;2023-11-21T01:34:28;100443.47;;;11.06;90.09
18749;BME280;9503;53.560;10.246;2023-11-21T01:36:56;100440.19;;;11.09;89.52
18749;BME280;9503;53.560;10.246;2023-11-21T01:39:22;100445.59;;;10.96;89.29
18749;BME280;9503;53.560;10.246;2023-11-21T01:41:49;100440.59;;;11.20;89.50
18749;BME280;9503;53.560;10.246;2023-11-21T01:44:17;100446.91;;;11.28;88.35
18749;BME280;9503;53.560;10.246;2023-11-21T01:46:44;100459.19;;;11.35;88.15
18749;BME280;9503;53.560;10.246;2023-11-21T01:49:13;100453.16;;;11.14;89.07
18749;BME280;9503;53.560;10.246;2023-11-21T01:51:41;100452.88;;;11.48;87.15
18749;BME280;9503;53.560;10.246;2023-11-21T01:54:09;100450.41;;;11.51;86.71
18749;BME280;9503;53.560;10.246;2023-11-21T01:56:37;100454.28;;;11.62;86.39
18749;BME280;9503;53.560;10.246;2023-11-21T01:59:04;100455.13;;;11.40;86.73
18749;BME280;9503;53.560;10.246;2023-11-21T02:01:32;100464.66;;;11.65;86.40
18749;BME280;9503;53.560;10.246;2023-11-21T02:03:59;100467.94;;;11.19;87.18
18749;BME280;9503;53.560;10.246;2023-11-21T02:06:28;100461.19;;;11.21;87.09
18749;BME280;9503;53.560;10.246;2023-11-21T02:08:56;100478.53;;;11.27;87.64
18749;BME280;9503;53.560;10.246;2023-11-21T02:11:25;100485.13;;;10.80;88.43
18749;BME280;9503;53.560;10.246;2023-11-21T02:13:52;100481.22;;;11.30;87.81
18749;BME280;9503;53.560;10.246;2023-11-21T02:16:19;100491.63;;;11.33;87.77
18749;BME280;9503;53.560;10.246;2023-11-21T02:18:46;100489.72;;;11.29;87.57
18749;BME280;9503;53.560;10.246;2023-11-21T02:21:14;100487.22;;;11.51;86.49
18749;BME280;9503;53.560;10.246;2023-11-21T02:23:42;100488.53;;;11.21;86.12
18749;BME280;9503;53.560;10.246;2023-11-21T02:26:09;100487.47;;;10.95;87.07
18749;BME280;9503;53.560;10.246;2023-11-21T02:28:36;100486.97;;;11.45;86.38
18749;BME280;9503;53.560;10.246;2023-11-21T02:31:04;100496.34;;;11.03;86.76
18749;BME280;9503;53.560;10.246;2023-11-21T02:33:31;100499.19;;;11.30;86.56
18749;BME280;9503;53.560;10.246;2023-11-21T02:35:59;100504.19;;;11.27;85.99
18749;BME280;9503;53.560;10.246;2023-11-21T02:38:27;100506.53;;;11.01;87.15
18749;BME280;9503;53.560;10.246;2023-11-21T02:40:58;100513.00;;;11.13;86.84
18749;BME280;9503;53.560;10.246;2023-11-21T02:43:25;100516.72;;;11.19;86.54
18749;BME280;9503;53.560;10.246;2023-11-21T02:45:52;100526.22;;;10.82;87.76
18749;BME280;9503;53.560;10.246;2023-11-21T02:48:18;100524.31;;;10.97;87.90
18749;BME280;9503;53.560;10.246;2023-11-21T02:50:45;100519.66;;;10.88;87.78
18749;BME280;9503;53.560;10.246;2023-11-21T02:53:11;100525.66;;;10.69;88.07
18749;BME280;9503;53.560;10.246;2023-11-21T02:55:38;100530.59;;;10.84;87.51
18749;BME280;9503;53.560;10.246;2023-11-21T02:58:06;100521.69;;;10.95;87.74
18749;BME280;9503;53.560;10.246;2023-11-21T03:00:33;100532.28;;;11.03;87.55
18749;BME280;9503;53.560;10.246;2023-11-21T03:03:01;100535.16;;;10.91;87.49
18749;BME280;9503;53.560;10.246;2023-11-21T03:05:27;100531.34;;;10.82;86.99
18749;BME280;9503;53.560;10.246;2023-11-21T03:07:54;100540.31;;;10.91;86.34
18749;BME280;9503;53.560;10.246;2023-11-21T03:10:21;100533.19;;;11.05;86.33
18749;BME280;9503;53.560;10.246;2023-11-21T03:12:48;100529.97;;;11.30;86.33
18749;BME280;9503;53.560;10.246;2023-11-21T03:15:16;100535.06;;;11.28;85.28
18749;BME280;9503;53.560;10.246;2023-11-21T03:17:43;100527.41;;;11.09;85.02
18749;BME280;9503;53.560;10.246;2023-11-21T03:20:10;100532.88;;;11.58;84.42
18749;BME280;9503;53.560;10.246;2023-11-21T03:22:37;100535.59;;;11.61;82.54
18749;BME280;9503;53.560;10.246;2023-11-21T03:25:04;100545.25;;;11.27;85.31
18749;BME280;9503;53.560;10.246;2023-11-21T03:27:31;100540.75;;;11.42;84.30
18749;BME280;9503;53.560;10.246;2023-11-21T03:29:58;100548.19;;;11.36;83.49
18749;BME280;9503;53.560;10.246;2023-11-21T03:32:26;100552.31;;;11.12;84.18
18749;BME280;9503;53.560;10.246;2023-11-21T03:34:54;100554.84;;;11.52;83.16
18749;BME280;9503;53.560;10.246;2023-11-21T03:37:22;100567.06;;;11.57;82.78
18749;BME280;9503;53.560;10.246;2023-11-21T03:39:48;100577.91;;;11.50;82.32
18749;BME280;9503;53.560;10.246;2023-11-21T03:42:15;100578.22;;;11.18;83.86
18749;BME280;9503;53.560;10.246;2023-11-21T03:44:42;100586.06;;;11.21;83.89
18749;BME280;9503;53.560;10.246;2023-11-21T03:47:08;100587.19;;;11.27;83.62
18749;BME280;9503;53.560;10.246;2023-11-21T03:49:37;100592.63;;;11.54;82.81
18749;BME280;9503;53.560;10.246;2023-11-21T03:52:05;100599.03;;;11.45;82.73
18749;BME280;9503;53.560;10.246;2023-11-21T03:54:33;100600.25;;;11.13;84.70
18749;BME280;9503;53.560;10.246;2023-11-21T03:56:59;100600.19;;;11.11;83.82
18749;BME280;9503;53.560;10.246;2023-11-21T03:59:26;100610.69;;;11.37;83.74
18749;BME280;9503;53.560;10.246;2023-11-21T04:01:55;100614.31;;;11.61;82.43
18749;BME280;9503;53.560;10.246;2023-11-21T04:04:22;100612.84;;;11.68;81.73
18749;BME280;9503;53.560;10.246;2023-11-21T04:06:50;100617.88;;;11.65;81.32
18749;BME280;9503;53.560;10.246;2023-11-21T04:09:18;100625.81;;;11.30;83.61
18749;BME280;9503;53.560;10.246;2023-11-21T04:11:45;100623.44;;;11.54;82.27
18749;BME280;9503;53.560;10.246;2023-11-21T04:14:11;100630.91;;;11.69;81.97
18749;BME280;9503;53.560;10.246;2023-11-21T04:16:38;100633.53;;;11.71;81.73
18749;BME280;9503;53.560;10.246;2023-11-21T04:19:05;100633.97;;;11.60;81.44
18749;BME280;9503;53.560;10.246;2023-11-21T04:21:31;100644.69;;;11.71;81.59
18749;BME280;9503;53.560;10.246;2023-11-21T04:24:00;100646.94;;;11.63;82.04
18749;BME280;9503;53.560;10.246;2023-11-21T04:26:26;100652.13;;;11.65;81.76
18749;BME280;9503;53.560;10.246;2023-11-21T04:28:53;100663.53;;;11.91;81.10
18749;BME280;9503;53.560;10.246;2023-11-21T04:31:19;100656.25;;;11.81;80.53
18749;BME280;9503;53.560;10.246;2023-11-21T04:33:46;100663.84;;;11.99;80.39
18749;BME280;9503;53.560;10.246;2023-11-21T04:36:12;100668.13;;;11.98;80.69
18749;BME280;9503;53.560;10.246;2023-11-21T04:38:39;100671.81;;;11.84;81.11
18749;BME280;9503;53.560;10.246;2023-11-21T04:41:08;100680.25;;;11.81;80.66
18749;BME280;9503;53.560;10.246;2023-11-21T04:43:34;100682.00;;;11.63;81.19
18749;BME280;9503;53.560;10.246;2023-11-21T04:46:01;100681.78;;;11.97;80.72
18749;BME280;9503;53.560;10.246;2023-11-21T04:48:28;100681.38;;;11.88;80.17
18749;BME280;9503;53.560;10.246;2023-11-21T04:50:55;100686.78;;;11.94;80.50
18749;BME280;9503;53.560;10.246;2023-11-21T04:53:21;100684.38;;;11.58;81.12
18749;BME280;9503;53.560;10.246;2023-11-21T04:55:48;100688.09;;;11.84;81.40
18749;BME280;9503;53.560;10.246;2023-11-21T04:58:16;100691.56;;;12.06;80.03
18749;BME280;9503;53.560;10.246;2023-11-21T05:00:43;100686.94;;;11.97;80.04
18749;BME280;9503;53.560;10.246;2023-11-21T05:03:09;100686.84;;;12.16;79.47
18749;BME280;9503;53.560;10.246;2023-11-21T05:05:36;100686.91;;;12.18;79.05
18749;BME280;9503;53.560;10.246;2023-11-21T05:08:03;100693.63;;;12.14;79.11
18749;BME280;9503;53.560;10.246;2023-11-21T05:10:30;100702.63;;;11.84;79.63
18749;BME280;9503;53.560;10.246;2023-11-21T05:12:56;100710.44;;;11.87;80.11
18749;BME280;9503;53.560;10.246;2023-11-21T05:15:25;100711.47;;;11.71;80.35
18749;BME280;9503;53.560;10.246;2023-11-21T05:17:52;100716.53;;;11.50;80.57
18749;BME280;9503;53.560;10.246;2023-11-21T05:20:20;100715.19;;;11.39;81.43
18749;BME280;9503;53.560;10.246;2023-11-21T05:22:47;100726.53;;;11.63;81.22
18749;BME280;9503;53.560;10.246;2023-11-21T05:25:15;100728.31;;;11.84;80.32
18749;BME280;9503;53.560;10.246;2023-11-21T05:27:43;100727.78;;;11.91;79.43
18749;BME280;9503;53.560;10.246;2023-11-21T05:30:10;100728.28;;;11.45;80.16
18749;BME280;9503;53.560;10.246;2023-11-21T05:32:39;100728.03;;;11.78;80.15
18749;BME280;9503;53.560;10.246;2023-11-21T05:35:07;100725.19;;;11.72;79.91
18749;BME280;9503;53.560;10.246;2023-11-21T05:37:40;100734.91;;;11.79;80.05
18749;BME280;9503;53.560;10.246;2023-11-21T05:40:08;100738.59;;;11.84;78.98
18749;BME280;9503;53.560;10.246;2023-11-21T05:42:35;100745.44;;;11.83;79.28
18749;BME280;9503;53.560;10.246;2023-11-21T05:45:04;100750.06;;;11.53;79.48
18749;BME280;9503;53.560;10.246;2023-11-21T05:47:36;100749.66;;;11.63;80.54
18749;BME280;9503;53.560;10.246;2023-11-21T05:50:05;100753.03;;;11.82;78.88
18749;BME280;9503;53.560;10.246;2023-11-21T05:52:35;100752.69;;;11.94;78.98
18749;BME280;9503;53.560;10.246;2023-11-21T05:55:02;100763.84;;;11.94;78.42
18749;BME280;9503;53.560;10.246;2023-11-21T05:57:30;100766.44;;;11.94;78.59
18749;BME280;9503;53.560;10.246;2023-11-21T05:59:56;100764.41;;;11.87;78.92
18749;BME280;9503;53.560;10.246;2023-11-21T06:02:23;100772.44;;;11.75;78.83
18749;BME280;9503;53.560;10.246;2023-11-21T06:04:51;100783.09;;;11.83;78.85
18749;BME280;9503;53.560;10.246;2023-11-21T06:07:19;100783.16;;;11.67;79.01
18749;BME280;9503;53.560;10.246;2023-11-21T06:09:45;100792.88;;;11.92;78.54
18749;BME280;9503;53.560;10.246;2023-11-21T06:12:14;100798.69;;;11.87;78.69
18749;BME280;9503;53.560;10.246;2023-11-21T06:14:41;100802.56;;;11.97;78.34
18749;BME280;9503;53.560;10.246;2023-11-21T06:17:07;100808.41;;;11.75;79.04
18749;BME280;9503;53.560;10.246;2023-11-21T06:19:35;100811.16;;;11.80;78.61
18749;BME280;9503;53.560;10.246;2023-11-21T06:22:01;100816.09;;;11.75;79.18
18749;BME280;9503;53.560;10.246;2023-11-21T06:24:29;100822.28;;;11.98;78.74
18749;BME280;9503;53.560;10.246;2023-11-21T06:26:56;100826.63;;;11.99;78.17
18749;BME280;9503;53.560;10.246;2023-11-21T06:29:24;100826.66;;;12.01;78.07
18749;BME280;9503;53.560;10.246;2023-11-21T06:31:52;100833.28;;;11.96;78.45
18749;BME280;9503;53.560;10.246;2023-11-21T06:34:20;100833.28;;;11.96;78.57
18749;BME280;9503;53.560;10.246;2023-11-21T06:36:46;100829.38;;;11.67;78.65
18749;BME280;9503;53.560;10.246;2023-11-21T06:39:13;100830.72;;;11.96;78.85
18749;BME280;9503;53.560;10.246;2023-11-21T06:41:43;100839.84;;;12.08;77.94
18749;BME280;9503;53.560;10.246;2023-11-21T06:44:09;100855.53;;;12.14;77.57
18749;BME280;9503;53.560;10.246;2023-11-21T06:46:36;100849.59;;;12.15;77.31
18749;BME280;9503;53.560;10.246;2023-11-21T06:49:04;100849.88;;;12.22;77.41
18749;BME280;9503;53.560;10.246;2023-11-21T06:51:31;100857.03;;;12.09;77.43
18749;BME280;9503;53.560;10.246;2023-11-21T06:53:58;100856.38;;;12.13;77.44
18749;BME280;9503;53.560;10.246;2023-11-21T06:56:25;100865.34;;;12.23;77.12
18749;BME280;9503;53.560;10.246;2023-11-21T06:58:53;100868.72;;;12.22;77.15
18749;BME280;9503;53.560;10.246;2023-11-21T07:01:20;100872.06;;;12.20;77.18
18749;BME280;9503;53.560;10.246;2023-11-21T07:03:47;100872.84;;;12.18;76.94
18749;BME280;9503;53.560;10.246;2023-11-21T07:06:13;100872.84;;;12.18;76.92
18749;BME280;9503;53.560;10.246;2023-11-21T07:08:40;100872.59;;;12.12;77.01
18749;BME280;9503;53.560;10.246;2023-11-21T07:11:07;100882.00;;;12.12;77.04
18749;BME280;9503;53.560;10.246;2023-11-21T07:13:34;100887.75;;;12.06;76.90
18749;BME280;9503;53.560;10.246;2023-11-21T07:16:02;100901.53;;;12.08;77.50
18749;BME280;9503;53.560;10.246;2023-11-21T07:18:29;100899.03;;;12.10;77.10
18749;BME280;9503;53.560;10.246;2023-11-21T07:20:56;100907.72;;;12.12;77.23
18749;BME280;9503;53.560;10.246;2023-11-21T07:23:24;100913.38;;;12.05;77.28
18749;BME280;9503;53.560;10.246;2023-11-21T07:25:51;100915.59;;;12.16;77.19
18749;BME280;9503;53.560;10.246;2023-11-21T07:28:17;100924.19;;;11.98;77.59
18749;BME280;9503;53.560;10.246;2023-11-21T07:30:44;100930.03;;;12.13;77.08
18749;BME280;9503;53.560;10.246;2023-11-21T07:33:12;100925.97;;;11.81;78.38
18749;BME280;9503;53.560;10.246;2023-11-21T07:35:39;100936.22;;;11.99;77.91
18749;BME280;9503;53.560;10.246;2023-11-21T07:38:05;100939.63;;;11.98;77.53
18749;BME280;9503;53.560;10.246;2023-11-21T07:40:32;100944.00;;;11.65;78.88
18749;BME280;9503;53.560;10.246;2023-11-21T07:42:58;100951.13;;;11.88;78.05
18749;BME280;9503;53.560;10.246;2023-11-21T07:45:25;100939.78;;;11.83;77.92
18749;BME280;9503;53.560;10.246;2023-11-21T07:47:53;100945.78;;;11.30;78.89
18749;BME280;9503;53.560;10.246;2023-11-21T07:50:21;100951.28;;;11.38;78.77
18749;BME280;9503;53.560;10.246;2023-11-21T07:52:48;100958.78;;;11.69;78.39
18749;BME280;9503;53.560;10.246;2023-11-21T07:55:15;100951.41;;;11.94;77.38
18749;BME280;9503;53.560;10.246;2023-11-21T07:57:41;100960.38;;;11.67;77.61
18749;BME280;9503;53.560;10.246;2023-11-21T08:00:09;100961.19;;;11.66;78.16
18749;BME280;9503;53.560;10.246;2023-11-21T08:02:37;100956.34;;;11.72;77.97
18749;BME280;9503;53.560;10.246;2023-11-21T08:05:04;100967.44;;;11.88;76.92
18749;BME280;9503;53.560;10.246;2023-11-21T08:07:33;100970.81;;;11.70;77.11
18749;BME280;9503;53.560;10.246;2023-11-21T08:10:01;100964.03;;;11.89;76.35
18749;BME280;9503;53.560;10.246;2023-11-21T08:12:28;100966.97;;;11.44;77.15
18749;BME280;9503;53.560;10.246;2023-11-21T08:14:55;100977.81;;;11.74;76.22
18749;BME280;9503;53.560;10.246;2023-11-21T08:17:21;100971.88;;;12.10;75.39
18749;BME280;9503;53.560;10.246;2023-11-21T08:19:48;100978.34;;;12.02;75.18
18749;BME280;9503;53.560;10.246;2023-11-21T08:22:16;100986.28;;;11.89;74.86
18749;BME280;9503;53.560;10.246;2023-11-21T08:24:45;100981.03;;;11.86;75.13
18749;BME280;9503;53.560;10.246;2023-11-21T08:27:12;100987.09;;;12.06;75.24
18749;BME280;9503;53.560;10.246;2023-11-21T08:29:41;100991.19;;;12.02;74.89
18749;BME280;9503;53.560;10.246;2023-11-21T08:32:08;100997.44;;;11.89;74.89
18749;BME280;9503;53.560;10.246;2023-11-21T08:34:35;101001.91;;;12.11;74.69
18749;BME280;9503;53.560;10.246;2023-11-21T08:37:01;101002.09;;;12.34;73.90
18749;BME280;9503;53.560;10.246;2023-11-21T08:39:28;101007.38;;;12.37;73.34
18749;BME280;9503;53.560;10.246;2023-11-21T08:41:57;101007.53;;;12.22;74.13
18749;BME280;9503;53.560;10.246;2023-11-21T08:44:23;101016.13;;;12.79;72.71
18749;BME280;9503;53.560;10.246;2023-11-21T08:46:50;101025.72;;;12.64;72.44
18749;BME280;9503;53.560;10.246;2023-11-21T08:49:16;101028.22;;;12.62;71.44
18749;BME280;9503;53.560;10.246;2023-11-21T08:51:44;101025.72;;;12.83;71.40
18749;BME280;9503;53.560;10.246;2023-11-21T08:54:11;101039.13;;;12.76;72.33
18749;BME280;9503;53.560;10.246;2023-11-21T08:56:37;101038.84;;;12.51;72.60
18749;BME280;9503;53.560;10.246;2023-11-21T08:59:05;101037.09;;;12.12;73.63
18749;BME280;9503;53.560;10.246;2023-11-21T09:01:33;101044.19;;;12.36;72.59
18749;BME280;9503;53.560;10.246;2023-11-21T09:03:59;101046.16;;;12.24;73.22
18749;BME280;9503;53.560;10.246;2023-11-21T09:06:26;101050.66;;;12.10;73.91
18749;BME280;9503;53.560;10.246;2023-11-21T09:08:53;101055.75;;;11.91;73.48
18749;BME280;9503;53.560;10.246;2023-11-21T09:11:19;101058.38;;;12.28;72.59
18749;BME280;9503;53.560;10.246;2023-11-21T09:13:46;101063.47;;;11.74;73.70
18749;BME280;9503;53.560;10.246;2023-11-21T09:16:15;101075.91;;;12.18;72.67
18749;BME280;9503;53.560;10.246;2023-11-21T09:18:41;101075.66;;;12.50;72.23
18749;BME280;9503;53.560;10.246;2023-11-21T09:21:08;101080.41;;;12.60;71.47
18749;BME280;9503;53.560;10.246;2023-11-21T09:23:35;101078.41;;;12.17;72.00
18749;BME280;9503;53.560;10.246;2023-11-21T09:26:02;101082.16;;;12.61;70.93
18749;BME280;9503;53.560;10.246;2023-11-21T09:28:30;101089.34;;;12.31;70.99
18749;BME280;9503;53.560;10.246;2023-11-21T09:30:57;101093.41;;;12.08;72.42
18749;BME280;9503;53.560;10.246;2023-11-21T09:33:25;101102.94;;;12.10;72.99
18749;BME280;9503;53.560;10.246;2023-11-21T09:35:51;101098.94;;;12.53;71.95
18749;BME280;9503;53.560;10.246;2023-11-21T09:38:18;101104.88;;;12.89;71.00
18749;BME280;9503;53.560;10.246;2023-11-21T09:40:44;101109.69;;;12.81;71.04
18749;BME280;9503;53.560;10.246;2023-11-21T09:43:15;101101.41;;;12.69;71.55
18749;BME280;9503;53.560;10.246;2023-11-21T09:45:45;101103.44;;;12.76;71.40
18749;BME280;9503;53.560;10.246;2023-11-21T09:48:13;101107.91;;;12.99;70.46
18749;BME280;9503;53.560;10.246;2023-11-21T09:50:41;101108.59;;;12.76;70.55
18749;BME280;9503;53.560;10.246;2023-11-21T09:53:13;101120.38;;;12.71;71.30
18749;BME280;9503;53.560;10.246;2023-11-21T09:55:43;101132.63;;;12.77;72.26
18749;BME280;9503;53.560;10.246;2023-11-21T09:58:10;101126.28;;;12.51;71.99
18749;BME280;9503;53.560;10.246;2023-11-21T10:00:40;101132.78;;;12.80;71.63
18749;BME280;9503;53.560;10.246;2023-11-21T10:03:07;101142.00;;;12.94;70.94
18749;BME280;9503;53.560;10.246;2023-11-21T10:05:34;101142.53;;;12.87;71.29
18749;BME280;9503;53.560;10.246;2023-11-21T10:08:03;101141.88;;;12.36;73.05
18749;BME280;9503;53.560;10.246;2023-11-21T10:10:32;101136.94;;;12.40;73.28
18749;BME280;9503;53.560;10.246;2023-11-21T10:13:02;101140.38;;;12.41;72.00
18749;BME280;9503;53.560;10.246;2023-11-21T10:15:33;101144.44;;;12.36;72.33
18749;BME280;9503;53.560;10.246;2023-11-21T10:18:02;101146.19;;;12.55;71.46
18749;BME280;9503;53.560;10.246;2023-11-21T10:20:30;101150.00;;;13.00;71.00
18749;BME280;9503;53.560;10.246;2023-11-21T10:22:56;101147.72;;;13.25;69.78
18749;BME280;9503;53.560;10.246;2023-11-21T10:25:24;101143.78;;;13.34;69.22
18749;BME280;9503;53.560;10.246;2023-11-21T10:27:57;101139.94;;;13.24;69.35
18749;BME280;9503;53.560;10.246;2023-11-21T10:30:28;101150.84;;;13.38;69.05
18749;BME280;9503;53.560;10.246;2023-11-21T10:32:59;101140.31;;;13.14;68.54
18749;BME280;9503;53.560;10.246;2023-11-21T10:35:38;101143.78;;;12.22;70.49
18749;BME280;9503;53.560;10.246;2023-11-21T10:38:05;101143.53;;;12.90;70.06
18749;BME280;9503;53.560;10.246;2023-11-21T10:40:37;101150.91;;;13.20;69.15
18749;BME280;9503;53.560;10.246;2023-11-21T10:43:06;101147.56;;;13.03;70.03
18749;BME280;9503;53.560;10.246;2023-11-21T10:45:34;101157.16;;;13.07;70.42
18749;BME280;9503;53.560;10.246;2023-11-21T10:48:05;101166.25;;;12.44;71.76
18749;BME280;9503;53.560;10.246;2023-11-21T10:50:32;101166.47;;;12.66;72.50
18749;BME280;9503;53.560;10.246;2023-11-21T10:53:01;101178.63;;;13.25;70.40
18749;BME280;9503;53.560;10.246;2023-11-21T10:55:29;101174.78;;;12.61;71.12
18749;BME280;9503;53.560;10.246;2023-11-21T10:57:58;101171.47;;;13.00;71.07
18749;BME280;9503;53.560;10.246;2023-11-21T11:00:26;101170.41;;;13.15;70.34
18749;BME280;9503;53.560;10.246;2023-11-21T11:02:54;101164.03;;;12.69;71.30
18749;BME280;9503;53.560;10.246;2023-11-21T11:05:22;101155.53;;;12.17;71.28
18749;BME280;9503;53.560;10.246;2023-11-21T11:07:50;101165.16;;;12.57;71.82
18749;BME280;9503;53.560;10.246;2023-11-21T11:10:19;101169.50;;;12.22;72.16
18749;BME280;9503;53.560;10.246;2023-11-21T11:12:48;101178.94;;;12.77;71.72
18749;BME280;9503;53.560;10.246;2023-11-21T11:15:19;101187.97;;;12.86;70.59
18749;BME280;9503;53.560;10.246;2023-11-21T11:17:46;101188.34;;;12.94;70.93
18749;BME280;9503;53.560;10.246;2023-11-21T11:20:14;101186.28;;;13.43;69.34
18749;BME280;9503;53.560;10.246;2023-11-21T11:22:50;101193.56;;;12.78;69.78
18749;BME280;9503;53.560;10.246;2023-11-21T11:25:47;101196.06;;;12.94;69.23
18749;BME280;9503;53.560;10.246;2023-11-21T11:28:21;101200.28;;;13.11;68.67
18749;BME280;9503;53.560;10.246;2023-11-21T11:30:58;101193.47;;;12.94;69.70
18749;BME280;9503;53.560;10.246;2023-11-21T11:33:35;101189.16;;;12.75;69.39
18749;BME280;9503;53.560;10.246;2023-11-21T11:36:06;101197.41;;;13.05;68.44
18749;BME280;9503;53.560;10.246;2023-11-21T11:38:37;101197.25;;;12.47;68.82
18749;BME280;9503;53.560;10.246;2023-11-21T11:41:04;101193.72;;;12.81;68.12
18749;BME280;9503;53.560;10.246;2023-11-21T11:43:32;101196.22;;;12.61;68.24
18749;BME280;9503;53.560;10.246;2023-11-21T11:46:06;101198.13;;;12.48;68.46
18749;BME280;9503;53.560;10.246;2023-11-21T11:48:35;101202.47;;;12.66;68.49
18749;BME280;9503;53.560;10.246;2023-11-21T11:51:05;101203.94;;;12.61;69.30
18749;BME280;9503;53.560;10.246;2023-11-21T11:53:38;101203.50;;;12.70;68.71
18749;BME280;9503;53.560;10.246;2023-11-21T11:56:24;101211.66;;;12.79;68.55
18749;BME280;9503;53.560;10.246;2023-11-21T11:58:52;101207.91;;;12.72;67.94
18749;BME280;9503;53.560;10.246;2023-11-21T12:01:22;101212.00;;;11.98;69.98
18749;BME280;9503;53.560;10.246;2023-11-21T12:04:25;101208.16;;;12.59;69.29
18749;BME280;9503;53.560;10.246;2023-11-21T12:07:00;101203.28;;;12.12;69.71
18749;BME280;9503;53.560;10.246;2023-11-21T12:09:28;101207.81;;;12.17;70.64
18749;BME280;9503;53.560;10.246;2023-11-21T12:11:56;101215.91;;;11.75;70.93
18749;BME280;9503;53.560;10.246;2023-11-21T12:14:23;101220.91;;;12.40;70.07
18749;BME280;9503;53.560;10.246;2023-11-21T12:16:52;101219.28;;;12.06;70.42
18749;BME280;9503;53.560;10.246;2023-11-21T12:19:19;101223.31;;;12.19;70.39
18749;BME280;9503;53.560;10.246;2023-11-21T12:21:48;101234.75;;;12.42;70.31
18749;BME280;9503;53.560;10.246;2023-11-21T12:24:15;101236.34;;;12.40;70.99
18749;BME280;9503;53.560;10.246;2023-11-21T12:26:43;101239.47;;;12.16;70.81
18749;BME280;9503;53.560;10.246;2023-11-21T12:29:09;101248.56;;;12.62;69.90
18749;BME280;9503;53.560;10.246;2023-11-21T12:31:36;101251.31;;;11.97;70.36
18749;BME280;9503;53.560;10.246;2023-11-21T12:34:04;101255.66;;;12.32;70.47
18749;BME280;9503;53.560;10.246;2023-11-21T12:36:32;101261.59;;;11.97;70.97
18749;BME280;9503;53.560;10.246;2023-11-21T12:39:00;101262.72;;;12.02;71.29
18749;BME280;9503;53.560;10.246;2023-11-21T12:41:27;101268.38;;;12.29;70.74
18749;BME280;9503;53.560;10.246;2023-11-21T12:43:55;101275.31;;;12.13;70.36
18749;BME280;9503;53.560;10.246;2023-11-21T12:46:21;101270.03;;;11.94;71.97
18749;BME280;9503;53.560;10.246;2023-11-21T12:48:48;101271.13;;;12.15;71.61
18749;BME280;9503;53.560;10.246;2023-11-21T12:51:16;101271.47;;;11.73;72.95
18749;BME280;9503;53.560;10.246;2023-11-21T12:53:44;101277.63;;;11.60;73.44